createdAt,value
2022-11-24T00:00:07.868Z,55.3
2022-11-24T00:05:26.094Z,55.1
2022-11-24T00:10:44.286Z,54.9
2022-11-24T00:16:02.492Z,54.9
2022-11-24T00:21:21.289Z,55.6
2022-11-24T00:26:40.054Z,55.6
2022-11-24T00:31:58.559Z,55.6
2022-11-24T00:37:16.837Z,56.5
2022-11-24T00:42:35.045Z,56.3
2022-11-24T00:47:53.254Z,56.1
2022-11-24T00:53:11.765Z,55.7
2022-11-24T00:58:30.224Z,55.3
2022-11-24T01:03:48.700Z,56.2
2022-11-24T01:09:07.497Z,55.2
2022-11-24T01:14:26.246Z,55.4
2022-11-24T01:19:44.746Z,56.1
2022-11-24T01:25:02.978Z,55.3
2022-11-24T01:30:21.173Z,55.2
2022-11-24T01:35:39.922Z,55.8
2022-11-24T01:40:58.444Z,55.6
2022-11-24T01:46:17.505Z,55.3
2022-11-24T01:51:35.695Z,55.3
2022-11-24T01:56:53.921Z,56.1
2022-11-24T02:02:12.326Z,56
2022-11-24T02:07:30.664Z,56.1
2022-11-24T02:12:48.880Z,55.1
2022-11-24T02:18:07.339Z,55.6
2022-11-24T02:23:25.550Z,55.9
2022-11-24T02:28:43.800Z,55.5
2022-11-24T02:34:01.709Z,56.3
2022-11-24T02:39:19.918Z,55.5
2022-11-24T02:44:38.432Z,56.2
2022-11-24T02:49:56.904Z,55.5
2022-11-24T02:55:15.404Z,55.4
2022-11-24T03:00:33.905Z,55.6
2022-11-24T03:05:51.816Z,55.3
2022-11-24T03:11:10.306Z,56.1
2022-11-24T03:16:28.857Z,55.9
2022-11-24T03:21:47.043Z,56
2022-11-24T03:27:05.524Z,55.4
2022-11-24T03:32:23.757Z,55.3
2022-11-24T03:37:42.221Z,55.9
2022-11-24T03:43:00.721Z,55.4
2022-11-24T03:48:18.944Z,55.5
2022-11-24T03:53:37.128Z,54.7
2022-11-24T03:58:55.625Z,54.4
2022-11-24T04:04:14.134Z,55.3
2022-11-24T04:09:32.600Z,54.8
2022-11-24T04:14:51.372Z,55
2022-11-24T04:20:10.161Z,55.3
2022-11-24T04:25:28.058Z,55
2022-11-24T04:30:30.647Z,54.6
2022-11-24T04:35:49.539Z,55.1
2022-11-24T04:41:08.000Z,55.7
2022-11-24T04:46:26.397Z,55.3
2022-11-24T04:51:45.025Z,54.5
2022-11-24T04:57:02.923Z,54.5
2022-11-24T05:02:21.123Z,54.4
2022-11-24T05:07:39.450Z,54.7
2022-11-24T05:12:57.939Z,54.5
2022-11-24T05:18:16.435Z,55
2022-11-24T05:23:34.666Z,54.9
2022-11-24T05:28:53.395Z,54.7
2022-11-24T05:34:11.893Z,54.7
2022-11-24T05:39:30.697Z,54.5
2022-11-24T05:44:48.614Z,54.8
2022-11-24T05:50:07.389Z,54.5
2022-11-24T05:55:25.911Z,55.3
2022-11-24T06:00:44.104Z,51.8
2022-11-24T06:06:02.870Z,52.8
2022-11-24T06:11:21.387Z,53.8
2022-11-24T06:16:39.505Z,53.8
2022-11-24T06:21:58.016Z,54.3
2022-11-24T06:27:16.245Z,53.7
2022-11-24T06:32:34.987Z,53.7
2022-11-24T06:37:53.766Z,53.6
2022-11-24T06:43:12.010Z,53.7
2022-11-24T06:48:30.480Z,53.6
2022-11-24T06:53:48.710Z,54.5
2022-11-24T06:59:07.221Z,54.6
2022-11-24T07:04:25.441Z,54.6
2022-11-24T07:09:43.932Z,53.7
2022-11-24T07:15:02.732Z,53.8
2022-11-24T07:20:20.961Z,53.8
2022-11-24T07:25:39.423Z,53.9
2022-11-24T07:30:57.947Z,54
2022-11-24T07:36:00.230Z,53.7
2022-11-24T07:41:03.162Z,53.7
2022-11-24T07:46:07.887Z,53.9
2022-11-24T07:51:26.195Z,54.4
2022-11-24T07:56:44.675Z,54.4
2022-11-24T08:02:03.456Z,53.6
2022-11-24T08:07:22.708Z,54.3
2022-11-24T08:12:44.454Z,54.5
2022-11-24T08:18:02.696Z,54.3
2022-11-24T08:23:21.175Z,53.3
2022-11-24T08:28:39.391Z,54
2022-11-24T08:33:57.724Z,53.2
2022-11-24T08:39:16.489Z,53.6
2022-11-24T08:44:36.066Z,53.1
2022-11-24T08:49:54.572Z,53.1
2022-11-24T08:55:13.046Z,53
2022-11-24T09:00:31.514Z,53.2
2022-11-24T09:05:53.629Z,53.6
2022-11-24T09:11:12.115Z,53.8
2022-11-24T09:16:31.942Z,53.7
2022-11-24T09:21:50.737Z,53.8
2022-11-24T09:27:09.181Z,53
2022-11-24T09:32:27.678Z,53
2022-11-24T09:37:45.949Z,52.9
2022-11-24T09:43:04.117Z,52.8
2022-11-24T09:48:22.605Z,53.3
2022-11-24T09:53:25.250Z,53.2
2022-11-24T09:58:43.737Z,53.5
2022-11-24T10:04:07.104Z,53.4
2022-11-24T10:09:25.365Z,53.5
2022-11-24T10:14:43.817Z,53.5
2022-11-24T10:20:02.591Z,53.1
2022-11-24T10:25:21.390Z,53.2
2022-11-24T10:30:39.488Z,53.2
2022-11-24T10:35:58.246Z,53.3
2022-11-24T10:41:16.760Z,52.5
2022-11-24T10:46:40.136Z,52.3
2022-11-24T10:51:58.629Z,52.9
2022-11-24T10:57:16.610Z,52.9
2022-11-24T11:02:35.154Z,52.9
2022-11-24T11:07:53.910Z,52.5
2022-11-24T11:13:12.125Z,52.1
2022-11-24T11:18:30.344Z,52.2
2022-11-24T11:23:49.107Z,52.8
2022-11-24T11:35:55.511Z,51.9
2022-11-24T11:41:14.275Z,52.5
2022-11-24T11:46:32.632Z,51.8
2022-11-24T11:51:50.964Z,52.4
2022-11-24T11:57:09.705Z,52.4
2022-11-24T12:02:28.757Z,51.8
2022-11-24T12:07:47.438Z,51.6
2022-11-24T12:13:06.030Z,51.6
2022-11-24T12:18:58.863Z,52.1
2022-11-24T12:24:17.752Z,51.9
2022-11-24T12:29:37.617Z,51.5
2022-11-24T12:34:56.303Z,51.4
2022-11-24T12:40:14.801Z,51.9
2022-11-24T12:45:33.580Z,51.1
2022-11-24T12:50:52.505Z,51
2022-11-24T12:56:10.982Z,51.6
2022-11-24T13:01:29.594Z,51.1
2022-11-24T13:06:50.104Z,51.7
2022-11-24T13:12:08.316Z,51.7
2022-11-24T13:18:07.055Z,51.4
2022-11-24T13:23:27.121Z,49.3
2022-11-24T13:29:25.432Z,50.2
2022-11-24T13:34:43.879Z,50.3
2022-11-24T13:40:02.700Z,50.9
2022-11-24T13:45:21.147Z,51
2022-11-24T13:50:39.357Z,51.1
2022-11-24T13:55:58.184Z,50.6
2022-11-24T14:01:17.051Z,50.5
2022-11-24T14:06:35.306Z,50.9
2022-11-24T14:11:53.520Z,50.5
2022-11-24T14:17:12.013Z,50.5
2022-11-24T14:22:30.228Z,51.3
2022-11-24T14:27:48.742Z,50.8
2022-11-24T14:33:07.202Z,51.4
2022-11-24T14:38:25.672Z,51.5
2022-11-24T14:43:44.191Z,50.7
2022-11-24T14:49:02.657Z,51.4
2022-11-24T14:54:21.123Z,50.5
2022-11-24T14:59:39.636Z,51.7
2022-11-24T15:05:05.465Z,51.1
2022-11-24T15:10:33.944Z,50.9
2022-11-24T15:15:54.409Z,51.7
2022-11-24T15:21:20.403Z,51.6
2022-11-24T15:26:42.733Z,51.2
2022-11-24T15:32:01.264Z,51.8
2022-11-24T15:37:20.034Z,51.8
2022-11-24T15:42:38.521Z,50.8
2022-11-24T15:47:57.116Z,51.1
2022-11-24T15:53:15.587Z,51.6
2022-11-24T15:58:34.325Z,51.9
2022-11-24T16:03:53.102Z,51.3
2022-11-24T16:09:11.584Z,50.9
2022-11-24T16:14:30.293Z,51.6
2022-11-24T16:20:01.413Z,51.8
2022-11-24T16:25:20.165Z,51.3
2022-11-24T16:30:38.916Z,51.7
2022-11-24T16:35:57.419Z,52
2022-11-24T16:41:16.139Z,51.7
2022-11-24T16:46:34.579Z,50.6
2022-11-24T16:51:52.527Z,51.2
2022-11-24T16:57:15.788Z,51.2
2022-11-24T17:02:34.386Z,51.2
2022-11-24T17:07:53.089Z,51.1
2022-11-24T17:13:11.659Z,50.3
2022-11-24T17:18:30.420Z,50.2
2022-11-24T17:23:49.208Z,50.5
2022-11-24T17:29:07.386Z,51
2022-11-24T17:34:25.317Z,50.2
2022-11-24T17:40:28.972Z,51.2
2022-11-24T17:45:47.767Z,51.2
2022-11-24T17:51:06.284Z,51.3
2022-11-24T17:56:25.073Z,50.7
2022-11-24T18:01:43.940Z,50.2
2022-11-24T18:07:02.684Z,51.2
2022-11-24T18:12:21.470Z,49.3
2022-11-24T18:17:40.235Z,49.9
2022-11-24T18:23:06.677Z,50
2022-11-24T18:28:25.184Z,50.6
2022-11-24T18:33:43.405Z,51.5
2022-11-24T18:39:01.624Z,51.2
2022-11-24T18:44:20.075Z,51.1
2022-11-24T18:49:23.398Z,51
2022-11-24T18:54:41.888Z,51.2
2022-11-24T19:00:00.111Z,51.8
2022-11-24T19:05:18.330Z,51.8
2022-11-24T19:10:36.802Z,51.2
2022-11-24T19:15:55.052Z,51.8
2022-11-24T19:21:13.529Z,51.3
2022-11-24T19:26:32.310Z,51.9
2022-11-24T19:31:51.177Z,51.8
2022-11-24T19:37:09.982Z,51.6
2022-11-24T19:42:28.756Z,51.4
2022-11-24T19:47:47.551Z,52.2
2022-11-24T19:53:06.306Z,52.3
2022-11-24T19:58:25.082Z,51.7
2022-11-24T20:03:44.089Z,52
2022-11-24T20:09:02.755Z,51.5
2022-11-24T20:14:05.614Z,51.7
2022-11-24T20:19:08.236Z,51.8
2022-11-24T20:24:26.418Z,52
2022-11-24T20:29:47.743Z,52.2
2022-11-24T20:35:05.957Z,51.8
2022-11-24T20:40:24.425Z,51.6
2022-11-24T20:45:42.895Z,52.1
2022-11-24T20:51:01.349Z,51.5
2022-11-24T20:56:19.808Z,51.4
2022-11-24T21:01:38.841Z,51.6
2022-11-24T21:06:57.400Z,52.3
2022-11-24T21:12:15.956Z,51.8
2022-11-24T21:17:34.716Z,50.5
2022-11-24T21:22:53.506Z,51.8
2022-11-24T21:28:11.956Z,52.2
2022-11-24T21:33:30.707Z,50.8
2022-11-24T21:38:49.558Z,50.7
2022-11-24T21:44:08.137Z,51.4
2022-11-24T21:49:26.903Z,51.4
2022-11-24T21:54:45.690Z,51.8
2022-11-24T22:00:04.157Z,51.1
2022-11-24T22:05:22.374Z,50.9
2022-11-24T22:10:40.611Z,51.8
2022-11-24T22:15:59.468Z,51.5
2022-11-24T22:21:18.240Z,51.1
2022-11-24T22:26:37.013Z,51
2022-11-24T22:31:55.248Z,51.1
2022-11-24T22:37:13.728Z,51.1
2022-11-24T22:42:31.931Z,51
2022-11-24T22:47:50.090Z,51.2
2022-11-24T22:53:08.291Z,51.5
2022-11-24T22:58:27.080Z,51.1
2022-11-24T23:03:46.176Z,51.9
2022-11-24T23:09:04.665Z,51.2
2022-11-24T23:14:23.160Z,51.5
2022-11-24T23:19:41.080Z,51.6
2022-11-24T23:24:59.864Z,51.6
2022-11-24T23:30:18.656Z,51.3
2022-11-24T23:35:36.843Z,51.8
2022-11-24T23:40:55.050Z,51.2
2022-11-24T23:46:13.741Z,51.4
2022-11-24T23:51:32.026Z,52
2022-11-24T23:56:50.768Z,51.6
